Potters Bar, United Kingdom
Current Conditions -  °F | °C
As of 7:50 AM on Saturday 25 Oct 2014 (Local Time) from EGWU Reporting Station
Broken Clouds Broken Clouds  
Wind Chill: 48°   Ceiling: 4200
Heat Index: 48°   Visibility: 6mi
Dew Point: 46°   Wind: 2mph
Humidity: 93%   Direction: 220°SW
Pressure: 30.03"   Gusts: NA
Location:  51.69°N, 0.18°W
Report Text: EGWU 250650Z 22002KT 9999 FEW038 BKN042 09/08 Q1017 BLU NOSIG
Loading
Personal Weather Stations






























Interactive Weather Map New forecast layout! Learn more

10-Day Weather Forecast

Advertisements
Track Severe Weather on mobile